Portland — WDG2201 — position and weather

sailwx.info

Track history (hours):
 
Tides and Currents Weather Stations Pressure Air Temp Water Temp Dewpoint Dewpoint Depression Visibility Wind Speed Wind Dir Waves Ship Positions

Portland

Owner: Shaver Transportation Company, Portland, OR. More information available from US FCC via Universal Licensing System and Coast Guard Vessel Documentation Center.

Last reported at 2014-Dec-19 02:33 UTC. Time now 2014-Dec-19 03:16 UTC.
Position N 45°34' W 122°44'.

Length 27 m; draft 4 m.

Type: Towing. MMSI: 367315814.

Date/timePositionNaut miles runAvg speedWind from/ knotsBaromVisibWave heightAir tempDewpointWater temp
2014-Dec-19 02:33N 45°34' W 122°44'3 3.2
2014-Dec-19 01:33N 45°36' W 122°47'0 0.0
2014-Dec-19 00:34N 45°36' W 122°47'3 3.4
2014-Dec-18 23:33N 45°34' W 122°44'0 0.0
2014-Dec-18 22:33N 45°34' W 122°44'0 0.4
2014-Dec-18 21:33N 45°34' W 122°44'0 0.1
2014-Dec-18 20:33N 45°34' W 122°44'1 0.6
2014-Dec-18 19:33N 45°34' W 122°43'0 0.0
2014-Dec-18 18:33N 45°34' W 122°43'0 0.0
2014-Dec-18 17:33N 45°34' W 122°43'1 0.5
2014-Dec-18 16:31N 45°34' W 122°44'0 0.0
2014-Dec-18 15:31N 45°34' W 122°44'0 0.0
2014-Dec-18 14:31N 45°34' W 122°44'0 0.0
2014-Dec-18 13:31N 45°34' W 122°44'0 0.0
2014-Dec-18 12:31N 45°34' W 122°44'0 0.0
2014-Dec-18 11:31N 45°34' W 122°44'0 0.0
2014-Dec-18 10:31N 45°34' W 122°44'0 0.0
2014-Dec-18 09:31N 45°34' W 122°44'0 0.0
2014-Dec-18 08:31N 45°34' W 122°44'0 0.0
2014-Dec-18 07:31N 45°34' W 122°44'0 0.0
2014-Dec-18 06:31N 45°34' W 122°44'0 0.0
2014-Dec-18 05:31N 45°34' W 122°44'0 0.0
2014-Dec-18 04:31N 45°34' W 122°44'0 0.0
2014-Dec-18 03:31N 45°34' W 122°44'0 0.0
2014-Dec-18 02:31N 45°34' W 122°44'0 0.0
2014-Dec-18 01:31N 45°34' W 122°44'0 0.0
2014-Dec-18 00:28N 45°34' W 122°44'0 0.0
2014-Dec-17 23:31N 45°34' W 122°44'0 0.0
2014-Dec-17 22:31N 45°34' W 122°44'0 0.0
2014-Dec-17 21:25N 45°34' W 122°44'0 0.0
2014-Dec-17 20:31N 45°34' W 122°44'0 0.0
2014-Dec-17 19:31N 45°34' W 122°44'0 0.0
2014-Dec-17 18:31N 45°34' W 122°44'0 0.0
2014-Dec-17 17:28N 45°34' W 122°44'0 0.0
2014-Dec-17 16:31N 45°34' W 122°44'0 0.0
2014-Dec-17 15:31N 45°34' W 122°44'0 0.0
2014-Dec-17 14:31N 45°34' W 122°44'0 0.0
2014-Dec-17 13:31N 45°34' W 122°44'0 0.0
2014-Dec-17 12:28N 45°34' W 122°44'0 0.0
2014-Dec-17 11:31N 45°34' W 122°44'0 0.0
2014-Dec-17 10:31N 45°34' W 122°44'0 0.0
2014-Dec-17 09:31N 45°34' W 122°44'0 0.0
2014-Dec-17 08:31N 45°34' W 122°44'0 0.0
2014-Dec-17 07:25N 45°34' W 122°44'0 0.0
2014-Dec-17 06:31N 45°34' W 122°44'0 0.0
2014-Dec-17 05:31N 45°34' W 122°44'0 0.0
2014-Dec-17 04:31N 45°34' W 122°44'0 0.0
2014-Dec-17 03:33N 45°34' W 122°44'3 2.9
2014-Dec-17 02:33N 45°36' W 122°47'2 2.2
2014-Dec-17 01:33N 45°38' W 122°47'3 3.0
2014-Dec-17 00:33N 45°38' W 122°43'1 1.3
2014-Dec-16 23:33N 45°39' W 122°45'0 0.3
2014-Dec-16 22:33N 45°39' W 122°45'0 0.0
2014-Dec-16 21:32N 45°39' W 122°45'0 0.0
2014-Dec-16 20:29N 45°39' W 122°45'0 0.0
2014-Dec-16 19:29N 45°39' W 122°45'0 0.0
2014-Dec-16 18:32N 45°39' W 122°45'0 0.0
2014-Dec-16 17:32N 45°39' W 122°45'0 0.0
2014-Dec-16 16:29N 45°39' W 122°45'0 0.0
2014-Dec-16 15:32N 45°39' W 122°45'0 0.0
2014-Dec-16 14:29N 45°39' W 122°45'0 0.0
2014-Dec-16 13:32N 45°39' W 122°45'0 0.0
2014-Dec-16 12:32N 45°39' W 122°45'0 0.0
2014-Dec-16 11:29N 45°39' W 122°45'0 0.0
2014-Dec-16 10:33N 45°39' W 122°45'1 1.3
2014-Dec-16 09:33N 45°38' W 122°43'1 0.9
2014-Dec-16 08:33N 45°39' W 122°45'3 2.8
2014-Dec-16 07:33N 45°36' W 122°47'3 3.5
2014-Dec-16 06:33N 45°34' W 122°44'0 0.0
2014-Dec-16 05:33N 45°34' W 122°44'0 0.0
2014-Dec-16 04:28N 45°34' W 122°44'0 0.0
2014-Dec-16 03:30N 45°34' W 122°44'0 0.0
2014-Dec-16 02:32N 45°34' W 122°44'1 0.5
2014-Dec-16 01:15N 45°34' W 122°44'1 2.0
2014-Dec-16 00:32N 45°35' W 122°46'4 3.5
2014-Dec-15 23:31N 45°39' W 122°45'0 0.0
2014-Dec-15 22:31N 45°39' W 122°45'0 0.0
2014-Dec-15 21:31N 45°39' W 122°45'0 0.0
2014-Dec-15 20:31N 45°39' W 122°45'0 0.0
2014-Dec-15 19:31N 45°39' W 122°45'0 0.0
2014-Dec-15 18:31N 45°39' W 122°45'0 0.0
2014-Dec-15 17:31N 45°39' W 122°45'0 0.0
2014-Dec-15 16:31N 45°39' W 122°45'0 0.0
2014-Dec-15 15:31N 45°39' W 122°45'0 0.0
2014-Dec-15 14:31N 45°39' W 122°45'0 0.0
2014-Dec-15 13:25N 45°39' W 122°45'0 0.0
2014-Dec-15 12:31N 45°39' W 122°45'0 0.0
2014-Dec-15 11:31N 45°39' W 122°45'0 0.0
2014-Dec-15 10:31N 45°39' W 122°45'0 0.0
2014-Dec-15 09:25N 45°39' W 122°45'0 0.0
2014-Dec-15 08:31N 45°39' W 122°45'0 0.0
2014-Dec-15 07:31N 45°39' W 122°45'0 0.0
2014-Dec-15 06:31N 45°39' W 122°45'0 0.0
2014-Dec-15 05:31N 45°39' W 122°45'2 1.6
2014-Dec-15 04:33N 45°38' W 122°43'1 0.8
2014-Dec-15 03:33N 45°39' W 122°44'1 0.8
2014-Dec-15 02:33N 45°39' W 122°45'0 0.0
2014-Dec-15 01:33N 45°39' W 122°45'0 0.0
2014-Dec-15 00:33N 45°39' W 122°45'1 0.8
2014-Dec-14 23:33N 45°39' W 122°46'1 0.8
2014-Dec-14 22:31N 45°39' W 122°45'0 0.0
2014-Dec-14 21:31N 45°39' W 122°45'1 1.5
2014-Dec-14 20:33N 45°38' W 122°43'1 1.4
2014-Dec-14 19:31N 45°39' W 122°45'0 0.0
2014-Dec-14 18:28N 45°39' W 122°45'0 0.0
2014-Dec-14 17:31N 45°39' W 122°45'0 0.0
2014-Dec-14 16:31N 45°39' W 122°45'0 0.0
2014-Dec-14 15:31N 45°39' W 122°45'0 0.0
2014-Dec-14 14:16N 45°39' W 122°45'0 0.0
2014-Dec-14 13:22N 45°39' W 122°45'0 0.0
2014-Dec-14 12:31N 45°39' W 122°45'0 0.0
2014-Dec-14 11:25N 45°39' W 122°45'0 0.0
2014-Dec-14 10:31N 45°39' W 122°45'0 0.0
2014-Dec-14 09:25N 45°39' W 122°45'0 0.0
2014-Dec-14 08:31N 45°39' W 122°45'0 0.0
2014-Dec-14 07:31N 45°39' W 122°45'0 0.0
2014-Dec-14 06:31N 45°39' W 122°45'0 0.0
2014-Dec-14 05:22N 45°39' W 122°45'0 0.0
2014-Dec-14 04:31N 45°39' W 122°45'0 0.0
2014-Dec-14 03:28N 45°39' W 122°45'0 0.0
2014-Dec-14 02:25N 45°39' W 122°45'0 0.0
2014-Dec-14 01:31N 45°39' W 122°45'0 0.0
2014-Dec-14 00:25N 45°39' W 122°45'1 0.7
2014-Dec-13 23:33N 45°39' W 122°46'3 2.9
2014-Dec-13 22:33N 45°36' W 122°47'3 2.6
2014-Dec-13 21:33N 45°39' W 122°45'0 0.0
2014-Dec-13 20:33N 45°39' W 122°45'0 0.0
2014-Dec-13 19:33N 45°39' W 122°45'0 0.0
2014-Dec-13 18:33N 45°39' W 122°45'0 0.0
2014-Dec-13 17:33N 45°39' W 122°45'0 0.0
2014-Dec-13 16:33N 45°39' W 122°45'0 0.0
2014-Dec-13 15:33N 45°39' W 122°45'2 1.9
2014-Dec-13 14:33N 45°38' W 122°43'1 0.7
2014-Dec-13 13:33N 45°38' W 122°42'2 1.7
2014-Dec-13 12:33N 45°39' W 122°44'1 0.9
2014-Dec-13 11:33N 45°39' W 122°45'0 0.0
2014-Dec-13 10:33N 45°39' W 122°45'3 2.6
2014-Dec-13 09:33N 45°36' W 122°47'1 1.4
2014-Dec-13 08:33N 45°38' W 122°47'3 2.8
2014-Dec-13 07:33N 45°35' W 122°46'2 2.1
2014-Dec-13 06:33N 45°34' W 122°44'0 0.0
2014-Dec-13 05:33N 45°34' W 122°44'0 0.0
2014-Dec-13 04:33N 45°34' W 122°44'0 0.0
2014-Dec-13 03:33N 45°34' W 122°44'0 0.0
2014-Dec-13 02:33N 45°34' W 122°44'0 0.0
2014-Dec-13 01:33N 45°34' W 122°44'0 0.0
2014-Dec-13 00:33N 45°34' W 122°44'0 0.0
2014-Dec-12 23:33N 45°34' W 122°44'0 0.0
2014-Dec-12 22:33N 45°34' W 122°44'0 0.0
2014-Dec-12 21:33N 45°34' W 122°44'2 2.3
2014-Dec-12 20:33N 45°32' W 122°41'2 2.4
2014-Dec-12 19:33N 45°34' W 122°44'0 0.0
2014-Dec-12 18:33N 45°34' W 122°44'0 0.0
2014-Dec-12 17:33N 45°34' W 122°44'0 0.0
2014-Dec-12 16:33N 45°34' W 122°44'0 0.3
2014-Dec-12 15:33N 45°34' W 122°43'0 0.0
2014-Dec-12 14:33N 45°34' W 122°43'0 0.0
2014-Dec-12 13:33N 45°34' W 122°43'0 0.3
2014-Dec-12 12:33N 45°34' W 122°44'0 0.0
2014-Dec-12 11:33N 45°34' W 122°44'0 0.0
2014-Dec-12 10:33N 45°34' W 122°44'0 0.0
2014-Dec-12 09:33N 45°34' W 122°44'0 0.0
2014-Dec-12 08:33N 45°34' W 122°44'0 0.0
2014-Dec-12 07:33N 45°34' W 122°44'0 0.0
2014-Dec-12 06:33N 45°34' W 122°44'1 1.3
2014-Dec-12 05:33N 45°33' W 122°42'5 5.4
2014-Dec-12 04:33N 45°38' W 122°43'1 0.9
2014-Dec-12 03:33N 45°39' W 122°45'0 0.0
2014-Dec-12 02:33N 45°39' W 122°45'2 2.3
2014-Dec-12 01:33N 45°37' W 122°47'4 4.4
2014-Dec-12 00:33N 45°34' W 122°44'0 0.0
2014-Dec-11 23:33N 45°34' W 122°44'0 0.0
2014-Dec-11 22:33N 45°34' W 122°44'0 0.0
2014-Dec-11 21:33N 45°34' W 122°44'0 0.0
2014-Dec-11 20:33N 45°34' W 122°44'0 0.0
2014-Dec-11 19:33N 45°34' W 122°44'0 0.0
2014-Dec-11 18:33N 45°34' W 122°44'0 0.0
2014-Dec-11 17:33N 45°34' W 122°44'0 0.0
2014-Dec-11 16:33N 45°34' W 122°44'0 0.2
2014-Dec-11 15:33N 45°34' W 122°43'2 2.4
2014-Dec-11 14:33N 45°32' W 122°41'3 2.6
2014-Dec-11 13:33N 45°34' W 122°44'0 0.1
2014-Dec-11 12:33N 45°34' W 122°44'0 0.0
2014-Dec-11 11:33N 45°34' W 122°44'0 0.0
2014-Dec-11 10:33N 45°34' W 122°44'0 0.0
2014-Dec-11 09:33N 45°34' W 122°44'0 0.0
2014-Dec-11 08:33N 45°34' W 122°44'0 0.0
2014-Dec-11 07:33N 45°34' W 122°44'0 0.0
2014-Dec-11 06:33N 45°34' W 122°44'0 0.0
2014-Dec-11 05:33N 45°34' W 122°44'0 0.0
2014-Dec-11 04:33N 45°34' W 122°44'0 0.0
2014-Dec-11 03:33N 45°34' W 122°44'2 1.7
2014-Dec-11 02:33N 45°33' W 122°42'1 1.0
2014-Dec-11 01:33N 45°32' W 122°41'3 2.4
2014-Dec-11 00:27N 45°34' W 122°44'0 0.0
2014-Dec-10 23:24N 45°34' W 122°44'0 0.0
2014-Dec-10 22:21N 45°34' W 122°44'0 0.0
2014-Dec-10 21:33N 45°34' W 122°44'0 0.0
2014-Dec-10 20:21N 45°34' W 122°44'0 0.0
2014-Dec-10 19:33N 45°34' W 122°44'0 0.0
2014-Dec-10 18:33N 45°34' W 122°44'0 0.0
2014-Dec-10 17:27N 45°34' W 122°44'0 0.0
2014-Dec-10 16:33N 45°34' W 122°44'0 0.0
2014-Dec-10 15:33N 45°34' W 122°44'0 0.2
2014-Dec-10 14:34N 45°34' W 122°44'5 4.8
2014-Dec-10 13:34N 45°38' W 122°47'2 1.6
2014-Dec-10 12:34N 45°39' W 122°45'0 0.0
2014-Dec-10 11:30N 45°39' W 122°45'0 0.0
2014-Dec-10 10:33N 45°39' W 122°45'0 0.0
2014-Dec-10 09:30N 45°39' W 122°45'0 0.0
2014-Dec-10 08:33N 45°39' W 122°45'6 6.0
2014-Dec-10 07:33N 45°45' W 122°46'1010.3
2014-Dec-10 06:33N 45°55' W 122°48'10 9.6
2014-Dec-10 05:33N 46°04' W 122°53'3 2.7
2014-Dec-10 04:33N 46°05' W 122°56'0 0.0
2014-Dec-10 03:33N 46°05' W 122°56'0 0.0
2014-Dec-10 02:33N 46°05' W 122°56'0 0.0
2014-Dec-10 01:33N 46°05' W 122°56'0 0.0
2014-Dec-10 00:33N 46°05' W 122°56'0 0.0
2014-Dec-09 23:33N 46°05' W 122°56'0 0.0
2014-Dec-09 22:33N 46°05' W 122°56'0 0.0
2014-Dec-09 21:33N 46°05' W 122°56'0 0.0
2014-Dec-09 20:30N 46°05' W 122°56'0 0.0
2014-Dec-09 19:33N 46°05' W 122°56'0 0.0
2014-Dec-09 18:33N 46°05' W 122°56'0 0.0
2014-Dec-09 17:33N 46°05' W 122°56'0 0.0
2014-Dec-09 16:33N 46°05' W 122°56'0 0.0
2014-Dec-09 15:33N 46°05' W 122°56'2 1.5
2014-Dec-09 14:33N 46°06' W 122°58'1010.4
2014-Dec-09 13:33N 46°11' W 123°11'1 0.7
2014-Dec-09 12:33N 46°11' W 123°10'9 8.6
2014-Dec-09 11:34N 46°07' W 122°59'2 1.5
2014-Dec-09 10:33N 46°06' W 122°58'0 0.0
2014-Dec-09 09:34N 46°06' W 122°58'0 0.0
2014-Dec-09 08:33N 46°06' W 122°58'2 1.5
2014-Dec-09 07:32N 46°05' W 122°56'0 0.0
2014-Dec-09 06:32N 46°05' W 122°56'0 0.0
2014-Dec-09 05:20N 46°05' W 122°56'0 0.0
2014-Dec-09 04:32N 46°05' W 122°56'0 0.0
2014-Dec-09 03:32N 46°05' W 122°56'  
Track history (hours):
 
Tides and Currents Weather Stations Pressure Air Temp Water Temp Dewpoint Dewpoint Depression Visibility Wind Speed Wind Dir Waves Ship Positions

Portland

Owner: Shaver Transportation Company, Portland, OR. More information available from US FCC via Universal Licensing System and Coast Guard Vessel Documentation Center.

Last reported at 2014-Dec-19 02:33 UTC. Time now 2014-Dec-19 03:16 UTC.
Position N 45°34' W 122°44'.

Length 27 m; draft 4 m.

Type: Towing. MMSI: 367315814.

Date/timePositionNaut miles runAvg speedWind from/ knotsBaromVisibWave heightAir tempDewpointWater temp
2014-Dec-19 02:33N 45°34' W 122°44'3 3.2
2014-Dec-19 01:33N 45°36' W 122°47'0 0.0
2014-Dec-19 00:34N 45°36' W 122°47'3 3.4
2014-Dec-18 23:33N 45°34' W 122°44'0 0.0
2014-Dec-18 22:33N 45°34' W 122°44'0 0.4
2014-Dec-18 21:33N 45°34' W 122°44'0 0.1
2014-Dec-18 20:33N 45°34' W 122°44'1 0.6
2014-Dec-18 19:33N 45°34' W 122°43'0 0.0
2014-Dec-18 18:33N 45°34' W 122°43'0 0.0
2014-Dec-18 17:33N 45°34' W 122°43'1 0.5
2014-Dec-18 16:31N 45°34' W 122°44'0 0.0
2014-Dec-18 15:31N 45°34' W 122°44'0 0.0
2014-Dec-18 14:31N 45°34' W 122°44'0 0.0
2014-Dec-18 13:31N 45°34' W 122°44'0 0.0
2014-Dec-18 12:31N 45°34' W 122°44'0 0.0
2014-Dec-18 11:31N 45°34' W 122°44'0 0.0
2014-Dec-18 10:31N 45°34' W 122°44'0 0.0
2014-Dec-18 09:31N 45°34' W 122°44'0 0.0
2014-Dec-18 08:31N 45°34' W 122°44'0 0.0
2014-Dec-18 07:31N 45°34' W 122°44'0 0.0
2014-Dec-18 06:31N 45°34' W 122°44'0 0.0
2014-Dec-18 05:31N 45°34' W 122°44'0 0.0
2014-Dec-18 04:31N 45°34' W 122°44'0 0.0
2014-Dec-18 03:31N 45°34' W 122°44'0 0.0
2014-Dec-18 02:31N 45°34' W 122°44'0 0.0
2014-Dec-18 01:31N 45°34' W 122°44'0 0.0
2014-Dec-18 00:28N 45°34' W 122°44'0 0.0
2014-Dec-17 23:31N 45°34' W 122°44'0 0.0
2014-Dec-17 22:31N 45°34' W 122°44'0 0.0
2014-Dec-17 21:25N 45°34' W 122°44'0 0.0
2014-Dec-17 20:31N 45°34' W 122°44'0 0.0
2014-Dec-17 19:31N 45°34' W 122°44'0 0.0
2014-Dec-17 18:31N 45°34' W 122°44'0 0.0
2014-Dec-17 17:28N 45°34' W 122°44'0 0.0
2014-Dec-17 16:31N 45°34' W 122°44'0 0.0
2014-Dec-17 15:31N 45°34' W 122°44'0 0.0
2014-Dec-17 14:31N 45°34' W 122°44'0 0.0
2014-Dec-17 13:31N 45°34' W 122°44'0 0.0
2014-Dec-17 12:28N 45°34' W 122°44'0 0.0
2014-Dec-17 11:31N 45°34' W 122°44'0 0.0
2014-Dec-17 10:31N 45°34' W 122°44'0 0.0
2014-Dec-17 09:31N 45°34' W 122°44'0 0.0
2014-Dec-17 08:31N 45°34' W 122°44'0 0.0
2014-Dec-17 07:25N 45°34' W 122°44'0 0.0
2014-Dec-17 06:31N 45°34' W 122°44'0 0.0
2014-Dec-17 05:31N 45°34' W 122°44'0 0.0
2014-Dec-17 04:31N 45°34' W 122°44'0 0.0
2014-Dec-17 03:33N 45°34' W 122°44'3 2.9
2014-Dec-17 02:33N 45°36' W 122°47'2 2.2
2014-Dec-17 01:33N 45°38' W 122°47'3 3.0
2014-Dec-17 00:33N 45°38' W 122°43'1 1.3
2014-Dec-16 23:33N 45°39' W 122°45'0 0.3
2014-Dec-16 22:33N 45°39' W 122°45'0 0.0
2014-Dec-16 21:32N 45°39' W 122°45'0 0.0
2014-Dec-16 20:29N 45°39' W 122°45'0 0.0
2014-Dec-16 19:29N 45°39' W 122°45'0 0.0
2014-Dec-16 18:32N 45°39' W 122°45'0 0.0
2014-Dec-16 17:32N 45°39' W 122°45'0 0.0
2014-Dec-16 16:29N 45°39' W 122°45'0 0.0
2014-Dec-16 15:32N 45°39' W 122°45'0 0.0
2014-Dec-16 14:29N 45°39' W 122°45'0 0.0
2014-Dec-16 13:32N 45°39' W 122°45'0 0.0
2014-Dec-16 12:32N 45°39' W 122°45'0 0.0
2014-Dec-16 11:29N 45°39' W 122°45'0 0.0
2014-Dec-16 10:33N 45°39' W 122°45'1 1.3
2014-Dec-16 09:33N 45°38' W 122°43'1 0.9
2014-Dec-16 08:33N 45°39' W 122°45'3 2.8
2014-Dec-16 07:33N 45°36' W 122°47'3 3.5
2014-Dec-16 06:33N 45°34' W 122°44'0 0.0
2014-Dec-16 05:33N 45°34' W 122°44'0 0.0
2014-Dec-16 04:28N 45°34' W 122°44'0 0.0
2014-Dec-16 03:30N 45°34' W 122°44'0 0.0
2014-Dec-16 02:32N 45°34' W 122°44'1 0.5
2014-Dec-16 01:15N 45°34' W 122°44'1 2.0
2014-Dec-16 00:32N 45°35' W 122°46'4 3.5
2014-Dec-15 23:31N 45°39' W 122°45'0 0.0
2014-Dec-15 22:31N 45°39' W 122°45'0 0.0
2014-Dec-15 21:31N 45°39' W 122°45'0 0.0
2014-Dec-15 20:31N 45°39' W 122°45'0 0.0
2014-Dec-15 19:31N 45°39' W 122°45'0 0.0
2014-Dec-15 18:31N 45°39' W 122°45'0 0.0
2014-Dec-15 17:31N 45°39' W 122°45'0 0.0
2014-Dec-15 16:31N 45°39' W 122°45'0 0.0
2014-Dec-15 15:31N 45°39' W 122°45'0 0.0
2014-Dec-15 14:31N 45°39' W 122°45'0 0.0
2014-Dec-15 13:25N 45°39' W 122°45'0 0.0
2014-Dec-15 12:31N 45°39' W 122°45'0 0.0
2014-Dec-15 11:31N 45°39' W 122°45'0 0.0
2014-Dec-15 10:31N 45°39' W 122°45'0 0.0
2014-Dec-15 09:25N 45°39' W 122°45'0 0.0
2014-Dec-15 08:31N 45°39' W 122°45'0 0.0
2014-Dec-15 07:31N 45°39' W 122°45'0 0.0
2014-Dec-15 06:31N 45°39' W 122°45'0 0.0
2014-Dec-15 05:31N 45°39' W 122°45'2 1.6
2014-Dec-15 04:33N 45°38' W 122°43'1 0.8
2014-Dec-15 03:33N 45°39' W 122°44'1 0.8
2014-Dec-15 02:33N 45°39' W 122°45'0 0.0
2014-Dec-15 01:33N 45°39' W 122°45'0 0.0
2014-Dec-15 00:33N 45°39' W 122°45'1 0.8
2014-Dec-14 23:33N 45°39' W 122°46'1 0.8
2014-Dec-14 22:31N 45°39' W 122°45'0 0.0
2014-Dec-14 21:31N 45°39' W 122°45'1 1.5
2014-Dec-14 20:33N 45°38' W 122°43'1 1.4
2014-Dec-14 19:31N 45°39' W 122°45'0 0.0
2014-Dec-14 18:28N 45°39' W 122°45'0 0.0
2014-Dec-14 17:31N 45°39' W 122°45'0 0.0
2014-Dec-14 16:31N 45°39' W 122°45'0 0.0
2014-Dec-14 15:31N 45°39' W 122°45'0 0.0
2014-Dec-14 14:16N 45°39' W 122°45'0 0.0
2014-Dec-14 13:22N 45°39' W 122°45'0 0.0
2014-Dec-14 12:31N 45°39' W 122°45'0 0.0
2014-Dec-14 11:25N 45°39' W 122°45'0 0.0
2014-Dec-14 10:31N 45°39' W 122°45'0 0.0
2014-Dec-14 09:25N 45°39' W 122°45'0 0.0
2014-Dec-14 08:31N 45°39' W 122°45'0 0.0
2014-Dec-14 07:31N 45°39' W 122°45'0 0.0
2014-Dec-14 06:31N 45°39' W 122°45'0 0.0
2014-Dec-14 05:22N 45°39' W 122°45'0 0.0
2014-Dec-14 04:31N 45°39' W 122°45'0 0.0
2014-Dec-14 03:28N 45°39' W 122°45'0 0.0
2014-Dec-14 02:25N 45°39' W 122°45'0 0.0
2014-Dec-14 01:31N 45°39' W 122°45'0 0.0
2014-Dec-14 00:25N 45°39' W 122°45'1 0.7
2014-Dec-13 23:33N 45°39' W 122°46'3 2.9
2014-Dec-13 22:33N 45°36' W 122°47'3 2.6
2014-Dec-13 21:33N 45°39' W 122°45'0 0.0
2014-Dec-13 20:33N 45°39' W 122°45'0 0.0
2014-Dec-13 19:33N 45°39' W 122°45'0 0.0
2014-Dec-13 18:33N 45°39' W 122°45'0 0.0
2014-Dec-13 17:33N 45°39' W 122°45'0 0.0
2014-Dec-13 16:33N 45°39' W 122°45'0 0.0
2014-Dec-13 15:33N 45°39' W 122°45'2 1.9
2014-Dec-13 14:33N 45°38' W 122°43'1 0.7
2014-Dec-13 13:33N 45°38' W 122°42'2 1.7
2014-Dec-13 12:33N 45°39' W 122°44'1 0.9
2014-Dec-13 11:33N 45°39' W 122°45'0 0.0
2014-Dec-13 10:33N 45°39' W 122°45'3 2.6
2014-Dec-13 09:33N 45°36' W 122°47'1 1.4
2014-Dec-13 08:33N 45°38' W 122°47'3 2.8
2014-Dec-13 07:33N 45°35' W 122°46'2 2.1
2014-Dec-13 06:33N 45°34' W 122°44'0 0.0
2014-Dec-13 05:33N 45°34' W 122°44'0 0.0
2014-Dec-13 04:33N 45°34' W 122°44'0 0.0
2014-Dec-13 03:33N 45°34' W 122°44'0 0.0
2014-Dec-13 02:33N 45°34' W 122°44'0 0.0
2014-Dec-13 01:33N 45°34' W 122°44'0 0.0
2014-Dec-13 00:33N 45°34' W 122°44'0 0.0
2014-Dec-12 23:33N 45°34' W 122°44'0 0.0
2014-Dec-12 22:33N 45°34' W 122°44'0 0.0
2014-Dec-12 21:33N 45°34' W 122°44'2 2.3
2014-Dec-12 20:33N 45°32' W 122°41'2 2.4
2014-Dec-12 19:33N 45°34' W 122°44'0 0.0
2014-Dec-12 18:33N 45°34' W 122°44'0 0.0
2014-Dec-12 17:33N 45°34' W 122°44'0 0.0
2014-Dec-12 16:33N 45°34' W 122°44'0 0.3
2014-Dec-12 15:33N 45°34' W 122°43'0 0.0
2014-Dec-12 14:33N 45°34' W 122°43'0 0.0
2014-Dec-12 13:33N 45°34' W 122°43'0 0.3
2014-Dec-12 12:33N 45°34' W 122°44'0 0.0
2014-Dec-12 11:33N 45°34' W 122°44'0 0.0
2014-Dec-12 10:33N 45°34' W 122°44'0 0.0
2014-Dec-12 09:33N 45°34' W 122°44'0 0.0
2014-Dec-12 08:33N 45°34' W 122°44'0 0.0
2014-Dec-12 07:33N 45°34' W 122°44'0 0.0
2014-Dec-12 06:33N 45°34' W 122°44'1 1.3
2014-Dec-12 05:33N 45°33' W 122°42'5 5.4
2014-Dec-12 04:33N 45°38' W 122°43'1 0.9
2014-Dec-12 03:33N 45°39' W 122°45'0 0.0
2014-Dec-12 02:33N 45°39' W 122°45'2 2.3
2014-Dec-12 01:33N 45°37' W 122°47'4 4.4
2014-Dec-12 00:33N 45°34' W 122°44'0 0.0
2014-Dec-11 23:33N 45°34' W 122°44'0 0.0
2014-Dec-11 22:33N 45°34' W 122°44'0 0.0
2014-Dec-11 21:33N 45°34' W 122°44'0 0.0
2014-Dec-11 20:33N 45°34' W 122°44'0 0.0
2014-Dec-11 19:33N 45°34' W 122°44'0 0.0
2014-Dec-11 18:33N 45°34' W 122°44'0 0.0
2014-Dec-11 17:33N 45°34' W 122°44'0 0.0
2014-Dec-11 16:33N 45°34' W 122°44'0 0.2
2014-Dec-11 15:33N 45°34' W 122°43'2 2.4
2014-Dec-11 14:33N 45°32' W 122°41'3 2.6
2014-Dec-11 13:33N 45°34' W 122°44'0 0.1
2014-Dec-11 12:33N 45°34' W 122°44'0 0.0
2014-Dec-11 11:33N 45°34' W 122°44'0 0.0
2014-Dec-11 10:33N 45°34' W 122°44'0 0.0
2014-Dec-11 09:33N 45°34' W 122°44'0 0.0
2014-Dec-11 08:33N 45°34' W 122°44'0 0.0
2014-Dec-11 07:33N 45°34' W 122°44'0 0.0
2014-Dec-11 06:33N 45°34' W 122°44'0 0.0
2014-Dec-11 05:33N 45°34' W 122°44'0 0.0
2014-Dec-11 04:33N 45°34' W 122°44'0 0.0
2014-Dec-11 03:33N 45°34' W 122°44'2 1.7
2014-Dec-11 02:33N 45°33' W 122°42'1 1.0
2014-Dec-11 01:33N 45°32' W 122°41'3 2.4
2014-Dec-11 00:27N 45°34' W 122°44'0 0.0
2014-Dec-10 23:24N 45°34' W 122°44'0 0.0
2014-Dec-10 22:21N 45°34' W 122°44'0 0.0
2014-Dec-10 21:33N 45°34' W 122°44'0 0.0
2014-Dec-10 20:21N 45°34' W 122°44'0 0.0
2014-Dec-10 19:33N 45°34' W 122°44'0 0.0
2014-Dec-10 18:33N 45°34' W 122°44'0 0.0
2014-Dec-10 17:27N 45°34' W 122°44'0 0.0
2014-Dec-10 16:33N 45°34' W 122°44'0 0.0
2014-Dec-10 15:33N 45°34' W 122°44'0 0.2
2014-Dec-10 14:34N 45°34' W 122°44'5 4.8
2014-Dec-10 13:34N 45°38' W 122°47'2 1.6
2014-Dec-10 12:34N 45°39' W 122°45'0 0.0
2014-Dec-10 11:30N 45°39' W 122°45'0 0.0
2014-Dec-10 10:33N 45°39' W 122°45'0 0.0
2014-Dec-10 09:30N 45°39' W 122°45'0 0.0
2014-Dec-10 08:33N 45°39' W 122°45'6 6.0
2014-Dec-10 07:33N 45°45' W 122°46'1010.3
2014-Dec-10 06:33N 45°55' W 122°48'10 9.6
2014-Dec-10 05:33N 46°04' W 122°53'3 2.7
2014-Dec-10 04:33N 46°05' W 122°56'0 0.0
2014-Dec-10 03:33N 46°05' W 122°56'0 0.0
2014-Dec-10 02:33N 46°05' W 122°56'0 0.0
2014-Dec-10 01:33N 46°05' W 122°56'0 0.0
2014-Dec-10 00:33N 46°05' W 122°56'0 0.0
2014-Dec-09 23:33N 46°05' W 122°56'0 0.0
2014-Dec-09 22:33N 46°05' W 122°56'0 0.0
2014-Dec-09 21:33N 46°05' W 122°56'0 0.0
2014-Dec-09 20:30N 46°05' W 122°56'0 0.0
2014-Dec-09 19:33N 46°05' W 122°56'0 0.0
2014-Dec-09 18:33N 46°05' W 122°56'0 0.0
2014-Dec-09 17:33N 46°05' W 122°56'0 0.0
2014-Dec-09 16:33N 46°05' W 122°56'0 0.0
2014-Dec-09 15:33N 46°05' W 122°56'2 1.5
2014-Dec-09 14:33N 46°06' W 122°58'1010.4
2014-Dec-09 13:33N 46°11' W 123°11'1 0.7
2014-Dec-09 12:33N 46°11' W 123°10'9 8.6
2014-Dec-09 11:34N 46°07' W 122°59'2 1.5
2014-Dec-09 10:33N 46°06' W 122°58'0 0.0
2014-Dec-09 09:34N 46°06' W 122°58'0 0.0
2014-Dec-09 08:33N 46°06' W 122°58'2 1.5
2014-Dec-09 07:32N 46°05' W 122°56'0 0.0
2014-Dec-09 06:32N 46°05' W 122°56'0 0.0
2014-Dec-09 05:20N 46°05' W 122°56'0 0.0
2014-Dec-09 04:32N 46°05' W 122°56'0 0.0
2014-Dec-09 03:32N 46°05' W 122°56'  

Dump ship's entire track history